Time;durP1;ratioP1;P1;durP2;ratioP2;P2;SDS_P1;SDS_P2;PMS_P1;PMS_P2;Temp;Humidity;BMP_temperature;BMP_pressure;BME280_temperature;BME280_humidity;BME280_pressure;Samples;Min_cycle;Max_cycle;Signal;HPM_P1;HPM_P2
2022/08/01 00:02:06;;;;;;;4.00;2.90;;;;;;;18.02;55.63;94667.38;5113636;28;20027;-77
2022/08/01 00:04:32;;;;;;;4.63;2.92;;;;;;;18.34;57.91;94712.00;5096413;28;20108;-77
2022/08/01 00:06:57;;;;;;;6.20;2.78;;;;;;;18.19;57.09;94701.41;5078520;28;20032;-77
2022/08/01 00:09:23;;;;;;;4.45;2.50;;;;;;;18.15;55.63;94679.13;5098108;28;20024;-77
2022/08/01 00:11:48;;;;;;;4.65;2.60;;;;;;;18.29;55.63;94694.13;5093716;28;20031;-77
2022/08/01 00:14:14;;;;;;;5.35;2.28;;;;;;;18.15;54.88;94674.69;5074854;28;20493;-77
2022/08/01 00:16:39;;;;;;;3.30;2.33;;;;;;;18.12;57.28;94664.53;5093268;28;20067;-77
2022/08/01 00:19:05;;;;;;;3.90;2.30;;;;;;;18.35;55.88;94700.47;5092695;28;20029;-77
2022/08/01 00:21:30;;;;;;;5.00;2.28;;;;;;;18.40;56.86;94695.50;5076221;28;20023;-77
2022/08/01 00:23:56;;;;;;;2.83;2.28;;;;;;;18.19;56.55;94683.03;5093445;28;20036;-77
2022/08/01 00:26:21;;;;;;;4.00;3.60;;;;;;;18.24;57.07;94702.53;5091196;28;20027;-77
2022/08/01 00:28:47;;;;;;;5.00;4.53;;;;;;;18.19;58.17;94725.94;5094435;28;20090;-77
2022/08/01 00:31:12;;;;;;;4.72;4.22;;;;;;;18.05;58.76;94719.63;5102467;28;20043;-76
2022/08/01 00:33:38;;;;;;;5.63;4.30;;;;;;;18.05;58.71;94724.88;5081959;28;20052;-77
2022/08/01 00:36:03;;;;;;;6.57;4.40;;;;;;;17.97;59.41;94714.41;5093211;28;20032;-77
2022/08/01 00:38:29;;;;;;;5.03;4.60;;;;;;;17.69;60.13;94718.47;5102364;28;20043;-76
2022/08/01 00:40:54;;;;;;;6.07;4.75;;;;;;;17.38;59.86;94704.38;5102919;28;20031;-76
2022/08/01 00:43:20;;;;;;;6.97;4.78;;;;;;;17.59;60.35;94721.34;5083933;28;20028;-76
2022/08/01 00:45:45;;;;;;;5.80;5.20;;;;;;;17.51;60.45;94716.94;5093352;28;20044;-76
2022/08/01 00:48:11;;;;;;;5.93;5.40;;;;;;;17.35;59.96;94714.38;5092569;28;20024;-76
2022/08/01 00:50:36;;;;;;;5.40;4.90;;;;;;;17.42;60.16;94731.09;5093590;28;20089;-76
2022/08/01 00:53:02;;;;;;;5.50;5.00;;;;;;;17.43;60.81;94730.91;5093940;28;20082;-76
2022/08/01 00:55:27;;;;;;;7.00;5.40;;;;;;;17.13;60.32;94705.44;5093292;28;20032;-76
2022/08/01 00:57:53;;;;;;;6.40;5.70;;;;;;;17.04;60.63;94703.84;5077680;28;20416;-76
2022/08/01 01:00:19;;;;;;;5.88;5.28;;;;;;;17.05;61.18;94718.59;5077720;28;20062;-76
2022/08/01 01:02:44;;;;;;;6.25;5.63;;;;;;;16.91;61.43;94714.84;5077141;28;20161;-76
2022/08/01 01:05:09;;;;;;;6.55;5.22;;;;;;;16.81;62.05;94709.00;5056292;28;20035;-76
2022/08/01 01:08:05;;;;;;;6.70;5.63;;;;;;;16.78;61.94;94710.16;5058554;28;20515;-76
2022/08/01 01:10:36;;;;;;;5.90;5.25;;;;;;;16.72;62.13;94697.69;5075633;28;20023;-76
2022/08/01 01:13:09;;;;;;;6.28;5.18;;;;;;;16.79;62.61;94703.09;5061110;28;20519;-77
2022/08/01 01:15:40;;;;;;;5.43;4.90;;;;;;;16.94;63.62;94699.63;5057762;28;20443;-76
2022/08/01 01:18:23;;;;;;;6.53;5.30;;;;;;;16.95;63.97;94695.19;5063071;28;20579;-76
2022/08/01 01:20:57;;;;;;;5.20;4.70;;;;;;;16.92;64.38;94690.28;5066947;28;20493;-76
2022/08/01 01:23:41;;;;;;;5.13;4.35;;;;;;;16.81;61.78;94686.22;5058374;28;20386;-76
2022/08/01 01:26:23;;;;;;;5.28;4.53;;;;;;;16.92;63.84;94685.03;5074614;28;20040;-76
2022/08/01 01:28:49;;;;;;;4.82;4.30;;;;;;;16.84;62.84;94688.50;5075260;28;20031;-76
2022/08/01 01:31:14;;;;;;;5.05;4.30;;;;;;;16.78;60.69;94678.69;5099276;28;20120;-76
2022/08/01 01:33:40;;;;;;;5.25;3.60;;;;;;;16.85;60.34;94679.63;5076978;28;20035;-76
2022/08/01 01:36:07;;;;;;;4.00;3.65;;;;;;;16.89;60.49;94680.13;5061658;28;20028;-76
2022/08/01 01:38:34;;;;;;;5.00;3.63;;;;;;;16.84;59.86;94674.56;5057209;28;20024;-76
2022/08/01 01:41:00;;;;;;;6.63;3.60;;;;;;;16.89;59.78;94678.31;5071219;28;20062;-76
2022/08/01 01:43:26;;;;;;;3.65;3.33;;;;;;;16.85;60.27;94665.69;5054995;28;20066;-76
2022/08/01 01:45:51;;;;;;;5.05;4.03;;;;;;;16.80;61.25;94660.13;5069888;28;20501;-76
2022/08/01 01:48:18;;;;;;;5.00;3.40;;;;;;;16.82;60.19;94660.78;5058700;28;20019;-76
2022/08/01 01:50:46;;;;;;;5.47;3.50;;;;;;;16.82;61.25;94671.28;5075636;28;20039;-76
2022/08/01 01:53:12;;;;;;;6.03;3.20;;;;;;;16.82;57.95;94666.03;5069592;28;20035;-76
2022/08/01 01:55:38;;;;;;;8.55;2.97;;;;;;;16.71;57.52;94633.09;5063540;28;20506;-76
2022/08/01 01:58:04;;;;;;;6.53;2.20;;;;;;;16.88;54.61;94662.72;5063586;28;20027;-76
2022/08/01 02:00:29;;;;;;;5.22;2.38;;;;;;;17.00;55.22;94664.00;5082373;28;20055;-76
2022/08/01 02:02:56;;;;;;;3.45;2.80;;;;;;;17.01;56.89;94665.63;5092034;28;20038;-76
2022/08/01 02:05:21;;;;;;;2.83;2.42;;;;;;;17.02;54.65;94664.69;5076796;28;20431;-76
2022/08/01 02:07:47;;;;;;;3.55;2.60;;;;;;;17.03;54.44;94652.38;5074273;28;20110;-76
2022/08/01 02:10:12;;;;;;;3.88;2.55;;;;;;;17.02;54.40;94661.22;5072972;28;20410;-76
2022/08/01 02:12:40;;;;;;;4.47;2.40;;;;;;;16.96;54.65;94647.78;5095103;28;20026;-76
2022/08/01 02:15:07;;;;;;;3.45;2.40;;;;;;;16.94;56.52;94657.66;5091602;28;20031;-76
2022/08/01 02:17:32;;;;;;;2.60;2.35;;;;;;;17.12;52.32;94651.34;5046958;28;20078;-76
2022/08/01 02:19:58;;;;;;;2.47;2.15;;;;;;;17.19;53.40;94660.97;5048883;28;20136;-77
2022/08/01 02:22:27;;;;;;;3.33;2.05;;;;;;;17.18;54.54;94658.53;5085698;28;20043;-76
2022/08/01 02:25:03;;;;;;;5.95;2.30;;;;;;;17.24;51.12;94655.19;5046251;28;20039;-76
2022/08/01 02:27:34;;;;;;;2.50;2.10;;;;;;;17.26;51.89;94647.97;5102355;28;20032;-76
2022/08/01 02:30:01;;;;;;;2.97;2.20;;;;;;;17.31;50.77;94648.28;5074792;28;20042;-76
2022/08/01 02:32:47;;;;;;;3.38;2.40;;;;;;;17.35;54.23;94644.31;5101674;28;20565;-76
2022/08/01 02:35:33;;;;;;;4.68;2.20;;;;;;;17.31;52.79;94650.91;5056533;28;20043;-77
2022/08/01 02:37:59;;;;;;;4.50;2.05;;;;;;;17.26;52.50;94653.22;5090840;28;20494;-77
2022/08/01 02:40:29;;;;;;;2.95;2.20;;;;;;;17.06;54.56;94623.97;5090335;28;20081;-77
2022/08/01 02:42:55;;;;;;;3.57;1.97;;;;;;;17.20;52.90;94649.47;5076621;28;20421;-77
2022/08/01 02:45:24;;;;;;;4.50;2.20;;;;;;;17.20;49.63;94651.28;5063514;28;20044;-77
2022/08/01 02:47:49;;;;;;;3.03;2.00;;;;;;;17.18;53.36;94637.53;5070545;28;20031;-77
2022/08/01 02:50:16;;;;;;;3.13;2.38;;;;;;;17.07;51.24;94635.28;5061124;28;20028;-76
2022/08/01 02:52:41;;;;;;;4.30;2.25;;;;;;;17.09;50.85;94641.19;5068825;28;20115;-76
2022/08/01 02:55:07;;;;;;;3.28;2.67;;;;;;;17.10;52.54;94637.56;5057421;28;20043;-77
2022/08/01 02:57:33;;;;;;;3.15;2.10;;;;;;;17.15;52.20;94643.13;5056807;28;20036;-76
2022/08/01 02:59:58;;;;;;;2.50;2.13;;;;;;;17.15;52.91;94646.56;5091978;28;20024;-76
2022/08/01 03:02:24;;;;;;;3.75;2.30;;;;;;;17.12;52.79;94648.72;5092216;28;20652;-76
2022/08/01 03:04:51;;;;;;;5.00;2.30;;;;;;;16.96;53.29;94636.47;5087163;28;20024;-76
2022/08/01 03:07:17;;;;;;;5.28;2.95;;;;;;;16.94;53.66;94641.91;5076589;28;20024;-76
2022/08/01 03:09:44;;;;;;;3.40;2.42;;;;;;;16.88;54.42;94650.47;5072892;28;20516;-76
2022/08/01 03:12:13;;;;;;;7.07;2.58;;;;;;;16.88;55.87;94655.69;5085074;28;20525;-76
2022/08/01 03:14:39;;;;;;;3.10;2.35;;;;;;;16.70;56.37;94653.25;5074279;28;20044;-76
2022/08/01 03:17:05;;;;;;;2.95;2.38;;;;;;;16.58;57.27;94659.03;5057468;28;20064;-76
2022/08/01 03:19:31;;;;;;;5.22;2.83;;;;;;;16.40;56.92;94653.97;5074010;28;20063;-76
2022/08/01 03:21:58;;;;;;;3.45;2.50;;;;;;;16.28;58.03;94648.25;5060158;28;20024;-77
2022/08/01 03:24:24;;;;;;;4.78;2.42;;;;;;;16.23;58.83;94640.88;5094166;28;20092;-76
2022/08/01 03:26:49;;;;;;;5.75;2.65;;;;;;;16.03;58.85;94658.75;5076387;28;20032;-76
2022/08/01 03:29:21;;;;;;;2.65;2.35;;;;;;;15.84;58.13;94661.69;5077383;28;20040;-76
2022/08/01 03:31:48;;;;;;;3.35;2.60;;;;;;;15.76;59.24;94664.31;5075181;28;20136;-76
2022/08/01 03:34:13;;;;;;;3.50;2.63;;;;;;;15.78;59.71;94668.41;5075267;28;20090;-76
2022/08/01 03:36:47;;;;;;;3.38;2.70;;;;;;;15.85;59.93;94674.66;5079829;28;20032;-76
2022/08/01 03:39:12;;;;;;;4.70;2.60;;;;;;;15.64;60.08;94677.69;5077858;28;20036;-76
2022/08/01 03:41:39;;;;;;;3.20;2.58;;;;;;;15.67;60.12;94673.94;5056140;28;20035;-76
2022/08/01 03:44:06;;;;;;;3.88;2.47;;;;;;;15.65;61.38;94670.66;5072303;28;20068;-76
2022/08/01 03:46:42;;;;;;;3.50;2.80;;;;;;;15.46;60.90;94668.31;5051499;28;20181;-77
2022/08/01 03:49:11;;;;;;;2.60;2.10;;;;;;;15.53;60.28;94664.91;5075186;28;20036;-76
2022/08/01 03:51:37;;;;;;;3.00;2.60;;;;;;;15.58;61.67;94665.25;5072407;28;20520;-76
2022/08/01 03:54:03;;;;;;;2.83;2.30;;;;;;;15.59;61.71;94664.25;5069656;28;20063;-76
2022/08/01 03:56:31;;;;;;;3.00;2.40;;;;;;;15.44;63.21;94667.69;5074985;28;20033;-76
2022/08/01 03:58:57;;;;;;;3.50;2.42;;;;;;;15.09;61.68;94643.38;5073465;28;20044;-76
2022/08/01 04:01:22;;;;;;;4.90;2.42;;;;;;;15.11;62.68;94655.31;5085022;28;20024;-76
2022/08/01 04:03:47;;;;;;;2.80;2.30;;;;;;;15.22;61.85;94667.28;5038363;28;20090;-76
2022/08/01 04:06:13;;;;;;;5.07;2.50;;;;;;;15.37;63.14;94670.91;5055179;28;20086;-76
2022/08/01 04:08:39;;;;;;;2.90;2.28;;;;;;;15.40;63.58;94669.78;5066963;28;20035;-76
2022/08/01 04:11:05;;;;;;;3.72;2.35;;;;;;;15.38;63.83;94671.75;5077879;28;20054;-76
2022/08/01 04:13:31;;;;;;;4.05;2.38;;;;;;;15.29;64.43;94657.00;5076062;28;20111;-76
2022/08/01 04:15:56;;;;;;;3.35;2.38;;;;;;;15.98;63.15;94658.44;5086984;28;20025;-76
2022/08/01 04:18:22;;;;;;;2.92;2.13;;;;;;;17.95;57.26;94658.59;5069865;28;20043;-76
2022/08/01 04:20:48;;;;;;;2.90;2.15;;;;;;;19.89;50.13;94657.59;5084863;28;20024;-77
2022/08/01 04:23:18;;;;;;;4.60;2.33;;;;;;;21.32;46.16;94658.22;5081522;28;20050;-77
2022/08/01 04:25:44;;;;;;;2.70;2.28;;;;;;;22.36;43.29;94634.06;5093164;28;20039;-77
2022/08/01 04:28:15;;;;;;;3.00;2.33;;;;;;;25.03;38.89;94657.44;5089348;28;20025;-77
2022/08/01 04:30:41;;;;;;;2.90;2.10;;;;;;;26.25;36.27;94665.38;5091790;28;20028;-77
2022/08/01 04:33:07;;;;;;;5.82;2.63;;;;;;;26.87;34.92;94659.69;5091179;28;20035;-77
2022/08/01 04:35:32;;;;;;;6.03;2.20;;;;;;;26.74;35.52;94618.09;5086779;28;20040;-77
2022/08/01 04:37:58;;;;;;;4.95;2.35;;;;;;;26.95;34.05;94624.69;5071142;28;20032;-78
2022/08/01 04:40:24;;;;;;;4.63;2.60;;;;;;;27.77;33.63;94659.19;5075393;28;20436;-77
2022/08/01 04:42:50;;;;;;;5.40;2.50;;;;;;;28.73;31.89;94645.16;5091551;28;20107;-77
2022/08/01 04:45:16;;;;;;;6.97;2.38;;;;;;;28.55;31.70;94610.66;5107140;28;20044;-77
2022/08/01 04:47:42;;;;;;;3.20;2.10;;;;;;;28.49;31.42;94599.88;5094921;28;20039;-77
2022/08/01 04:50:08;;;;;;;3.00;2.25;;;;;;;29.80;30.32;94624.38;5113273;28;20118;-77
2022/08/01 04:52:34;;;;;;;4.18;2.78;;;;;;;30.03;28.11;94628.63;5091205;28;20509;-77
2022/08/01 04:55:00;;;;;;;7.07;2.67;;;;;;;30.47;27.86;94615.13;5074365;28;20516;-77
2022/08/01 04:57:25;;;;;;;8.63;2.85;;;;;;;30.53;28.00;94656.97;5092272;28;20107;-77
2022/08/01 04:59:56;;;;;;;5.60;2.95;;;;;;;30.54;27.61;94642.50;5096864;28;20088;-77
2022/08/01 05:02:22;;;;;;;7.45;3.30;;;;;;;30.91;27.59;94625.66;5094456;28;20042;-77
2022/08/01 05:04:47;;;;;;;4.60;2.60;;;;;;;29.95;29.90;94637.94;5109273;28;20044;-77
2022/08/01 05:07:13;;;;;;;8.02;3.30;;;;;;;27.40;32.66;94614.19;5084599;28;20065;-77
2022/08/01 05:09:41;;;;;;;5.15;2.72;;;;;;;26.90;34.14;94644.03;5100750;28;20333;-77
2022/08/01 05:12:07;;;;;;;6.88;3.17;;;;;;;26.17;34.96;94645.22;5101187;28;20027;-77
2022/08/01 05:14:32;;;;;;;8.10;3.33;;;;;;;25.48;37.62;94641.22;5099787;28;20532;-77
2022/08/01 05:17:03;;;;;;;4.43;3.15;;;;;;;24.68;37.88;94634.91;5100002;28;20099;-77
2022/08/01 05:19:34;;;;;;;6.75;3.40;;;;;;;24.33;39.08;94631.91;5095435;28;20032;-77
2022/08/01 05:22:04;;;;;;;5.25;2.80;;;;;;;24.55;39.77;94636.88;5082564;28;20027;-78
2022/08/01 05:24:30;;;;;;;8.00;3.58;;;;;;;24.49;39.21;94635.91;5097684;28;20129;-79
2022/08/01 05:26:56;;;;;;;5.35;3.13;;;;;;;24.12;41.06;94635.72;5092544;28;20032;-78
2022/08/01 05:29:22;;;;;;;7.03;3.10;;;;;;;24.26;38.66;94639.91;5076015;28;20041;-77
2022/08/01 05:31:47;;;;;;;7.07;2.78;;;;;;;24.17;40.43;94640.41;5091868;28;20038;-77
2022/08/01 05:34:13;;;;;;;5.20;2.90;;;;;;;23.93;39.11;94634.00;5097443;28;20038;-77
2022/08/01 05:36:38;;;;;;;3.20;2.58;;;;;;;23.92;39.42;94621.78;5111910;28;20032;-77
2022/08/01 05:39:04;;;;;;;3.97;2.50;;;;;;;23.71;42.86;94631.72;5092918;28;20047;-78
2022/08/01 05:41:30;;;;;;;3.63;2.50;;;;;;;23.59;42.51;94597.06;5098166;28;20035;-78
2022/08/01 05:43:55;;;;;;;8.52;3.10;;;;;;;23.59;42.72;94588.28;5083010;28;20039;-78
2022/08/01 05:46:21;;;;;;;5.72;3.15;;;;;;;23.44;41.64;94593.91;5097099;28;20028;-78
2022/08/01 05:48:46;;;;;;;5.93;3.17;;;;;;;23.55;40.33;94593.22;5097598;28;20058;-79
2022/08/01 05:51:12;;;;;;;5.88;3.15;;;;;;;23.71;39.24;94607.00;5097348;28;20417;-78
2022/08/01 05:53:37;;;;;;;8.77;3.78;;;;;;;23.75;39.27;94589.66;5100898;28;20024;-78
2022/08/01 05:56:03;;;;;;;6.93;3.72;;;;;;;24.10;38.51;94645.75;5099105;28;20028;-78
2022/08/01 05:58:28;;;;;;;9.25;3.88;;;;;;;23.84;38.51;94621.00;5100067;28;20035;-78
2022/08/01 06:00:54;;;;;;;5.10;3.50;;;;;;;24.01;40.44;94642.53;5082389;28;20028;-78
2022/08/01 06:03:22;;;;;;;6.50;3.65;;;;;;;24.09;39.15;94650.22;5081541;28;20016;-78
2022/08/01 06:05:48;;;;;;;4.95;3.85;;;;;;;23.90;38.01;94643.22;5097588;28;20056;-79
2022/08/01 06:08:13;;;;;;;6.63;4.13;;;;;;;23.36;39.75;94647.94;5096082;27;20551;-79
2022/08/01 06:10:39;;;;;;;6.47;4.13;;;;;;;23.34;41.39;94646.53;5098730;28;20057;-78
2022/08/01 06:13:05;;;;;;;7.00;3.53;;;;;;;23.47;40.44;94653.63;5098110;28;20498;-78
2022/08/01 06:15:31;;;;;;;6.90;3.97;;;;;;;22.72;40.43;94607.16;5081502;28;20040;-79
2022/08/01 06:17:56;;;;;;;8.30;3.85;;;;;;;23.24;41.91;94662.88;5063008;28;20405;-78
2022/08/01 06:20:22;;;;;;;6.55;3.78;;;;;;;23.24;41.36;94646.19;5097823;27;20035;-78
2022/08/01 06:22:47;;;;;;;4.93;3.63;;;;;;;23.40;39.78;94651.81;5120326;27;20038;-78
2022/08/01 06:25:13;;;;;;;5.63;3.55;;;;;;;23.60;39.97;94662.31;5119131;27;20035;-78
2022/08/01 06:27:38;;;;;;;2.95;2.10;;;;;;;23.34;35.87;94604.13;5120761;27;20034;-78
2022/08/01 06:30:04;;;;;;;4.93;2.33;;;;;;;23.55;35.03;94622.38;5102247;27;20088;-78
2022/08/01 06:32:30;;;;;;;4.75;2.00;;;;;;;23.90;35.39;94663.63;5100705;28;20036;-78
2022/08/01 06:34:56;;;;;;;3.72;2.00;;;;;;;23.98;34.68;94664.19;5121316;27;20412;-78
2022/08/01 06:37:22;;;;;;;2.92;1.95;;;;;;;24.05;34.81;94664.97;5120113;27;20012;-78
2022/08/01 06:39:49;;;;;;;3.17;2.00;;;;;;;24.13;33.22;94645.31;5117027;28;20447;-78
2022/08/01 06:42:15;;;;;;;3.25;1.80;;;;;;;24.04;34.92;94618.25;5099377;28;20037;-78
2022/08/01 06:44:40;;;;;;;4.00;2.00;;;;;;;24.17;33.49;94619.97;5098499;28;20058;-78
2022/08/01 06:47:07;;;;;;;3.47;2.13;;;;;;;24.47;34.33;94644.06;5100540;28;20040;-78
2022/08/01 06:49:33;;;;;;;5.22;2.20;;;;;;;24.57;33.69;94642.75;5080937;28;20046;-78
2022/08/01 06:51:58;;;;;;;3.22;2.03;;;;;;;24.68;34.11;94642.03;5099251;28;20039;-78
2022/08/01 06:54:24;;;;;;;3.38;2.25;;;;;;;24.82;32.89;94637.41;5100800;28;20024;-78
2022/08/01 06:56:49;;;;;;;3.22;2.20;;;;;;;24.83;33.19;94633.75;5092816;28;20020;-79
2022/08/01 06:59:15;;;;;;;5.93;2.28;;;;;;;24.90;32.93;94629.97;5112401;28;20493;-78
2022/08/01 07:01:40;;;;;;;4.20;2.13;;;;;;;24.98;32.90;94631.53;5106466;28;20136;-79
2022/08/01 07:04:06;;;;;;;4.07;2.00;;;;;;;25.00;33.37;94642.75;5113569;28;20028;-79
2022/08/01 07:06:32;;;;;;;3.88;2.35;;;;;;;24.81;32.89;94628.63;5106002;28;20024;-77
2022/08/01 07:08:57;;;;;;;5.63;2.20;;;;;;;24.91;33.31;94622.84;5107041;28;20039;-78
2022/08/01 07:11:23;;;;;;;4.80;2.70;;;;;;;25.03;34.18;94633.53;5102308;28;20038;-77
2022/08/01 07:13:49;;;;;;;4.95;2.25;;;;;;;25.09;33.61;94628.13;5095460;28;20040;-76
2022/08/01 07:16:14;;;;;;;4.93;2.30;;;;;;;25.11;33.07;94638.56;5062872;28;20020;-78
2022/08/01 07:18:40;;;;;;;4.22;2.20;;;;;;;25.07;33.28;94640.81;5094135;28;20042;-77
2022/08/01 07:21:06;;;;;;;4.90;2.80;;;;;;;25.10;32.94;94635.09;5073412;28;20039;-76
2022/08/01 07:23:31;;;;;;;4.05;2.20;;;;;;;25.14;33.46;94641.59;5090004;28;20036;-78
2022/08/01 07:25:56;;;;;;;4.68;2.47;;;;;;;25.29;34.00;94630.59;5097086;28;20031;-77
2022/08/01 07:28:22;;;;;;;4.80;2.30;;;;;;;25.35;34.05;94643.03;5096897;28;20036;-78
2022/08/01 07:30:47;;;;;;;5.65;2.58;;;;;;;25.38;34.16;94634.59;5066833;28;20031;-78
2022/08/01 07:33:13;;;;;;;5.38;2.70;;;;;;;25.37;33.16;94635.59;5083887;28;20028;-78
2022/08/01 07:35:39;;;;;;;3.83;2.70;;;;;;;25.32;34.02;94638.13;5081416;28;20020;-79
2022/08/01 07:38:05;;;;;;;4.25;2.50;;;;;;;25.23;33.16;94631.50;5081591;28;20028;-77
2022/08/01 07:40:31;;;;;;;5.78;2.55;;;;;;;25.16;34.79;94628.91;5078814;28;20032;-77
2022/08/01 07:42:56;;;;;;;3.83;2.15;;;;;;;25.25;34.52;94628.63;5085465;28;20035;-77
2022/08/01 07:45:22;;;;;;;4.25;2.30;;;;;;;25.44;34.00;94645.38;5082341;27;20108;-79
2022/08/01 07:47:49;;;;;;;4.18;2.40;;;;;;;25.37;33.13;94632.94;5095816;28;20496;-77
2022/08/01 07:50:15;;;;;;;3.33;2.40;;;;;;;25.11;33.56;94617.31;5065816;28;20034;-77
2022/08/01 07:52:40;;;;;;;4.35;2.38;;;;;;;25.32;33.29;94629.34;5072942;28;20417;-77
2022/08/01 07:55:06;;;;;;;3.30;2.22;;;;;;;25.42;33.32;94627.78;5094086;28;20036;-77
2022/08/01 07:57:32;;;;;;;3.40;2.35;;;;;;;25.36;33.67;94619.91;5099031;27;20035;-78
2022/08/01 07:59:57;;;;;;;3.78;2.40;;;;;;;25.35;33.03;94600.50;5104667;27;20171;-78
2022/08/01 08:02:23;;;;;;;4.50;2.30;;;;;;;25.46;32.78;94628.13;5088499;28;20042;-78
2022/08/01 08:04:49;;;;;;;3.95;2.08;;;;;;;25.51;33.12;94625.63;5069768;28;20038;-78
2022/08/01 08:07:14;;;;;;;3.70;2.03;;;;;;;25.59;33.83;94640.47;5084407;28;20027;-78
2022/08/01 08:09:39;;;;;;;5.22;2.30;;;;;;;25.57;32.33;94638.00;5100465;28;20033;-78
2022/08/01 08:12:05;;;;;;;4.63;2.35;;;;;;;25.46;33.06;94632.66;5099719;27;20032;-78
2022/08/01 08:14:31;;;;;;;4.88;2.20;;;;;;;25.48;32.95;94634.06;5103096;28;20084;-79
2022/08/01 08:16:56;;;;;;;4.00;2.25;;;;;;;25.51;33.43;94638.91;5112100;27;20023;-78
2022/08/01 08:19:22;;;;;;;4.05;2.10;;;;;;;25.55;32.58;94652.59;5105325;27;20472;-78
2022/08/01 08:21:47;;;;;;;3.90;2.10;;;;;;;25.62;32.88;94648.00;5117008;27;20032;-80
2022/08/01 08:24:19;;;;;;;3.08;2.28;;;;;;;25.65;32.67;94636.91;5105489;27;20039;-79
2022/08/01 08:26:44;;;;;;;2.95;2.30;;;;;;;25.37;32.98;94585.09;5115629;27;20054;-78
2022/08/01 08:29:10;;;;;;;5.82;2.35;;;;;;;25.57;34.07;94607.97;5105449;27;20428;-78
2022/08/01 08:31:35;;;;;;;3.47;2.38;;;;;;;25.82;33.44;94632.56;5121595;27;20042;-79
2022/08/01 08:34:01;;;;;;;5.13;2.42;;;;;;;25.82;33.93;94637.09;5122806;27;20015;-79
2022/08/01 08:36:26;;;;;;;5.40;2.75;;;;;;;25.70;33.28;94639.72;5104868;27;20027;-78
2022/08/01 08:38:52;;;;;;;3.63;2.15;;;;;;;25.45;32.13;94612.44;5120861;27;20034;-79
2022/08/01 08:41:18;;;;;;;3.88;2.03;;;;;;;25.56;32.60;94644.38;5122651;27;20457;-78
2022/08/01 08:43:43;;;;;;;3.92;2.55;;;;;;;25.32;32.63;94608.88;5103572;27;20034;-78
2022/08/01 08:46:09;;;;;;;3.83;2.40;;;;;;;25.29;32.45;94589.91;5121347;27;20522;-78
2022/08/01 08:48:34;;;;;;;4.00;2.75;;;;;;;25.47;32.65;94635.09;5087916;27;20023;-78
2022/08/01 08:51:01;;;;;;;3.75;2.50;;;;;;;25.48;33.82;94639.38;5121973;27;20027;-78
2022/08/01 08:53:26;;;;;;;4.63;2.40;;;;;;;25.46;33.37;94619.34;5121198;27;20031;-78
2022/08/01 08:55:52;;;;;;;3.13;2.58;;;;;;;25.20;33.34;94605.34;5087562;27;20034;-78
2022/08/01 08:58:17;;;;;;;3.33;2.50;;;;;;;25.31;32.90;94633.03;5083788;27;20409;-78
2022/08/01 09:00:43;;;;;;;3.78;2.15;;;;;;;25.40;32.24;94635.16;5103319;27;20473;-78
2022/08/01 09:03:09;;;;;;;2.42;2.15;;;;;;;25.42;32.02;94638.41;5122498;27;20020;-78
2022/08/01 09:05:34;;;;;;;2.88;2.28;;;;;;;25.41;31.65;94636.00;5095885;27;20400;-78
2022/08/01 09:08:00;;;;;;;2.90;2.20;;;;;;;25.38;33.02;94639.91;5097156;27;20408;-78
2022/08/01 09:10:25;;;;;;;3.22;2.08;;;;;;;25.53;32.44;94630.72;5093522;27;20044;-77
2022/08/01 09:13:11;;;;;;;5.95;2.20;;;;;;;25.56;32.41;94614.31;5091609;28;20417;-77
2022/08/01 09:15:45;;;;;;;5.28;2.10;;;;;;;25.51;32.35;94592.91;5071950;28;20126;-78
2022/08/01 09:18:40;;;;;;;4.45;2.30;;;;;;;25.88;31.92;94630.09;5075479;27;20053;-78
2022/08/01 09:21:05;;;;;;;4.90;2.70;;;;;;;25.98;31.66;94633.81;5111343;27;20107;-78
2022/08/01 09:23:39;;;;;;;4.10;2.00;;;;;;;25.69;30.81;94568.13;5081991;28;20119;-79
2022/08/01 09:26:06;;;;;;;4.20;2.10;;;;;;;25.67;30.87;94559.56;5098400;28;20031;-79
2022/08/01 09:28:31;;;;;;;4.25;2.00;;;;;;;26.05;30.30;94620.44;5089807;28;20111;-79
2022/08/01 09:30:57;;;;;;;3.47;2.20;;;;;;;25.81;31.13;94577.75;5089982;28;20468;-79
2022/08/01 09:33:22;;;;;;;3.22;2.17;;;;;;;25.80;30.71;94560.19;5071694;28;20024;-79
2022/08/01 09:35:55;;;;;;;4.68;2.92;;;;;;;25.95;30.88;94573.09;5089853;28;20028;-78
2022/08/01 09:38:22;;;;;;;2.85;2.10;;;;;;;25.95;31.39;94556.31;5071600;28;20054;-79
2022/08/01 09:40:56;;;;;;;3.70;2.30;;;;;;;26.00;31.31;94564.41;5089438;28;20043;-79
2022/08/01 09:43:26;;;;;;;4.55;2.40;;;;;;;26.33;32.08;94605.66;5089582;28;20028;-79
2022/08/01 09:45:51;;;;;;;;;;;;;;;26.27;31.92;94597.56;5069181;28;20102;-79
2022/08/01 09:48:17;;;;;;;2.67;2.22;;;;;;;26.27;31.41;94592.25;5069866;28;19913;-80
2022/08/01 09:50:47;;;;;;;4.22;2.40;;;;;;;26.18;31.94;94561.66;5069947;28;20071;-80
2022/08/01 09:53:13;;;;;;;4.97;2.25;;;;;;;26.56;31.90;94605.72;5069306;28;20052;-80
2022/08/01 09:55:39;;;;;;;3.70;2.17;;;;;;;26.33;31.07;94569.22;5071183;28;20040;-81
2022/08/01 09:58:05;;;;;;;2.83;2.20;;;;;;;26.39;30.89;94562.16;5071026;28;20025;-80
2022/08/01 10:00:32;;;;;;;2.95;2.33;;;;;;;26.67;31.57;94601.44;5070437;28;20036;-80
2022/08/01 10:02:57;;;;;;;2.60;1.85;;;;;;;26.46;31.29;94554.84;5071100;28;20115;-80
2022/08/01 10:05:35;;;;;;;4.32;2.30;;;;;;;26.79;30.01;94588.91;5070706;28;20486;-80
2022/08/01 10:08:03;;;;;;;3.50;2.10;;;;;;;26.64;30.31;94549.44;5070936;28;20024;-79
2022/08/01 10:10:29;;;;;;;3.20;2.50;;;;;;;26.52;31.00;94536.13;5070408;28;20047;-80
2022/08/01 10:12:56;;;;;;;4.70;2.20;;;;;;;26.68;31.77;94544.44;5070998;28;20028;-80
2022/08/01 10:15:21;;;;;;;4.22;2.58;;;;;;;26.98;31.77;94586.91;5071153;28;20032;-80
2022/08/01 10:17:58;;;;;;;3.33;2.40;;;;;;;26.86;32.06;94544.31;5069797;28;20024;-80
2022/08/01 10:20:26;;;;;;;4.70;2.20;;;;;;;26.87;31.10;94540.59;5071139;28;20029;-80
2022/08/01 10:22:53;;;;;;;6.13;2.10;;;;;;;27.16;30.68;94583.31;5070789;28;20024;-80
2022/08/01 10:25:19;;;;;;;3.90;2.08;;;;;;;27.07;30.83;94560.72;5069301;28;20410;-80
2022/08/01 10:27:45;;;;;;;2.45;2.10;;;;;;;26.82;29.12;94521.81;5069659;28;20021;-79
2022/08/01 10:30:11;;;;;;;3.50;2.20;;;;;;;26.97;28.77;94534.69;5053109;28;20456;-80
2022/08/01 10:32:36;;;;;;;3.45;2.20;;;;;;;27.11;30.06;94576.00;5071068;28;20024;-80
2022/08/01 10:35:06;;;;;;;4.88;2.30;;;;;;;27.16;30.44;94568.16;5071094;28;20036;-80
2022/08/01 10:37:33;;;;;;;3.88;2.30;;;;;;;27.02;30.95;94518.75;5070489;28;20017;-79
2022/08/01 10:39:58;;;;;;;3.90;2.30;;;;;;;27.37;30.28;94565.88;5069534;28;20040;-80
2022/08/01 10:42:24;;;;;;;3.67;2.50;;;;;;;27.16;30.37;94541.50;5070562;28;20036;-80
2022/08/01 10:44:49;;;;;;;4.25;2.13;;;;;;;27.04;29.97;94530.00;5080926;28;20059;-80
2022/08/01 10:47:25;;;;;;;4.68;2.65;;;;;;;27.35;30.32;94567.97;5072559;28;20023;-80
2022/08/01 10:49:55;;;;;;;3.90;2.30;;;;;;;27.33;30.29;94568.22;5072435;28;20040;-79
2022/08/01 10:52:20;;;;;;;3.70;2.67;;;;;;;27.08;30.56;94525.00;5072658;28;20055;-79
2022/08/01 10:54:46;;;;;;;4.93;2.70;;;;;;;27.24;30.39;94568.81;5090473;28;20071;-80
2022/08/01 10:57:12;;;;;;;3.78;2.42;;;;;;;27.27;31.29;94576.31;5090896;28;20024;-80
2022/08/01 10:59:48;;;;;;;2.85;2.13;;;;;;;27.24;30.34;94574.13;5072990;28;20383;-80
2022/08/01 11:02:28;;;;;;;3.28;2.00;;;;;;;26.98;30.45;94519.50;5072902;28;20032;-80
2022/08/01 11:05:17;;;;;;;2.58;2.10;;;;;;;27.32;31.02;94565.78;5057331;28;20040;-79
2022/08/01 11:08:03;;;;;;;3.05;2.13;;;;;;;27.09;31.56;94513.31;5090827;28;20081;-80
2022/08/01 11:10:37;;;;;;;4.38;2.10;;;;;;;27.21;31.08;94524.75;5072548;28;20561;-80
2022/08/01 11:13:07;;;;;;;3.20;2.17;;;;;;;27.28;31.33;94520.13;5093935;28;20024;-80
2022/08/01 11:15:32;;;;;;;3.35;2.00;;;;;;;27.25;29.32;94523.25;5094552;28;20122;-79
2022/08/01 11:17:59;;;;;;;2.70;1.98;;;;;;;27.54;30.73;94564.06;5094496;28;20099;-79
2022/08/01 11:20:26;;;;;;;3.45;2.20;;;;;;;27.40;30.81;94528.06;5094894;28;20043;-80
2022/08/01 11:22:57;;;;;;;3.55;1.85;;;;;;;27.48;30.24;94556.22;5094373;28;20489;-80
2022/08/01 11:25:23;;;;;;;3.20;2.13;;;;;;;27.05;30.64;94491.66;5094838;28;20036;-80
2022/08/01 11:27:48;;;;;;;4.18;2.00;;;;;;;27.48;30.66;94548.22;5094571;28;20030;-79
2022/08/01 11:30:14;;;;;;;5.50;2.20;;;;;;;27.34;30.80;94553.03;5095040;28;20036;-79
2022/08/01 11:32:55;;;;;;;4.82;2.28;;;;;;;27.12;30.76;94513.63;5094761;28;20020;-79
2022/08/01 11:35:24;;;;;;;5.25;2.03;;;;;;;27.13;30.91;94509.13;5094617;28;20043;-79